FIN121 EFHK-VIDP
Flight info
| Callsign | FIN121 |
|---|---|
| Flight time | N/A |
| Altitude | 38000 |
| Route | KOIVU Y123 LARTI DCT LUTAL DCT BERIL/N0468F370 DCT BOKSU/N0466F380 DCT TOXAR DCT ROBTU/N0464F390 DCT KENIN DCT REVDA DCT UDROS UM859 KARDE UN644 ROLIN N644 ODILI DCT BARAD M747 SUBUT T923 ERLEV L850 BAKUV N701 LARGI B701 KRS A240 INRAK B449 DOLOS B475 NINOP A909 LEMOD N644 DI A466 ELKUX ELKUX6A |
| Aircraft | A333/H-SDE3GHIJ2J3J5M1RVWXY/LB2D1 |
Departure
| Time | 2026-04-23 16:41 |
|---|---|
| Airport | Helsinki Vantaa Airport (EFHK) |
Arrival
| Time | N/A |
|---|---|
| Airport | Indira Gandhi International Airport (VIDP) |
| Time | Latitude | Longitude | Altitude | Speed | Heading |
|---|---|---|---|---|---|
| 2026-04-23 16:15 | 60.31418 | 24.95505 | 170 ft | 0 kts | 137° |
| 2026-04-23 16:24 | 60.31425 | 24.95492 | 170 ft | 3 kts | 137° |
| 2026-04-23 16:25 | 60.31439 | 24.95467 | 170 ft | 3 kts | 137° |
| 2026-04-23 16:25 | 60.31452 | 24.95438 | 170 ft | 3 kts | 139° |
| 2026-04-23 16:25 | 60.31462 | 24.95422 | 170 ft | 3 kts | 171° |
| 2026-04-23 16:25 | 60.31482 | 24.95425 | 170 ft | 3 kts | 209° |
| 2026-04-23 16:26 | 60.31496 | 24.95448 | 170 ft | 0 kts | 227° |
| 2026-04-23 16:30 | 60.31495 | 24.95447 | 170 ft | 1 kts | 227° |
| 2026-04-23 16:30 | 60.31471 | 24.95395 | 170 ft | 9 kts | 226° |
| 2026-04-23 16:30 | 60.31410 | 24.95269 | 170 ft | 16 kts | 226° |
| 2026-04-23 16:31 | 60.31417 | 24.95056 | 170 ft | 19 kts | 310° |
| 2026-04-23 16:31 | 60.31445 | 24.94880 | 170 ft | 8 kts | 235° |
| 2026-04-23 16:31 | 60.31385 | 24.94759 | 167 ft | 16 kts | 227° |
| 2026-04-23 16:31 | 60.31293 | 24.94562 | 163 ft | 22 kts | 226° |
| 2026-04-23 16:32 | 60.31180 | 24.94317 | 165 ft | 26 kts | 227° |
| 2026-04-23 16:32 | 60.31048 | 24.94032 | 162 ft | 28 kts | 226° |
| 2026-04-23 16:32 | 60.30975 | 24.93773 | 164 ft | 13 kts | 285° |
| 2026-04-23 16:32 | 60.30986 | 24.93738 | 164 ft | 0 kts | 308° |
| 2026-04-23 16:37 | 60.30989 | 24.93731 | 164 ft | 2 kts | 309° |
| 2026-04-23 16:37 | 60.31013 | 24.93684 | 164 ft | 8 kts | 316° |
| 2026-04-23 16:37 | 60.31082 | 24.93621 | 162 ft | 14 kts | 355° |
| 2026-04-23 16:38 | 60.31174 | 24.93736 | 162 ft | 18 kts | 47° |
| 2026-04-23 16:38 | 60.31207 | 24.93807 | 162 ft | 0 kts | 46° |
| 2026-04-23 16:40 | 60.31210 | 24.93813 | 162 ft | 5 kts | 46° |
| 2026-04-23 16:40 | 60.31385 | 24.94187 | 164 ft | 70 kts | 47° |
| 2026-04-23 16:40 | 60.31854 | 24.95229 | 177 ft | 129 kts | 47° |
| 2026-04-23 16:41 | 60.32582 | 24.96823 | 215 ft | 178 kts | 44° |
| 2026-04-23 16:41 | 60.33449 | 24.98843 | 528 ft | 204 kts | 46° |
| 2026-04-23 16:41 | 60.34383 | 25.01162 | 1209 ft | 221 kts | 48° |
| 2026-04-23 16:41 | 60.35344 | 25.03662 | 1981 ft | 225 kts | 49° |
| 2026-04-23 16:42 | 60.36276 | 25.06152 | 2661 ft | 221 kts | 46° |
| 2026-04-23 16:42 | 60.37397 | 25.08421 | 2906 ft | 236 kts | 39° |
| 2026-04-23 16:42 | 60.38629 | 25.10750 | 3320 ft | 248 kts | 40° |
| 2026-04-23 16:42 | 60.39647 | 25.13593 | 3981 ft | 257 kts | 68° |
| 2026-04-23 16:43 | 60.39723 | 25.17241 | 4686 ft | 269 kts | 102° |
| 2026-04-23 16:43 | 60.38851 | 25.20643 | 5403 ft | 276 kts | 121° |
| 2026-04-23 16:43 | 60.37770 | 25.23860 | 6193 ft | 276 kts | 120° |
| 2026-04-23 16:43 | 60.36757 | 25.27166 | 6888 ft | 278 kts | 116° |
| 2026-04-23 16:44 | 60.35806 | 25.30616 | 7498 ft | 284 kts | 114° |
| 2026-04-23 16:44 | 60.34889 | 25.34200 | 8102 ft | 290 kts | 112° |
| 2026-04-23 16:44 | 60.33786 | 25.37685 | 8738 ft | 303 kts | 132° |
| 2026-04-23 16:44 | 60.31952 | 25.39882 | 9342 ft | 315 kts | 164° |
| 2026-04-23 16:45 | 60.29761 | 25.40068 | 9922 ft | 319 kts | 192° |
| 2026-04-23 16:45 | 60.27547 | 25.39236 | 10311 ft | 331 kts | 193° |
| 2026-04-23 16:45 | 60.25236 | 25.38521 | 10561 ft | 349 kts | 191° |
| 2026-04-23 16:45 | 60.22900 | 25.36996 | 10783 ft | 359 kts | 213° |
| 2026-04-23 16:46 | 60.20858 | 25.34015 | 11005 ft | 368 kts | 226° |
| 2026-04-23 16:46 | 60.18916 | 25.30512 | 11249 ft | 382 kts | 228° |
| 2026-04-23 16:46 | 60.16948 | 25.26818 | 11579 ft | 393 kts | 228° |
| 2026-04-23 16:46 | 60.14935 | 25.23028 | 12053 ft | 398 kts | 228° |
| 2026-04-23 16:47 | 60.12901 | 25.19207 | 12562 ft | 403 kts | 228° |
| 2026-04-23 16:47 | 60.10840 | 25.15342 | 13058 ft | 408 kts | 228° |
| 2026-04-23 16:47 | 60.08753 | 25.11437 | 13552 ft | 412 kts | 228° |
| 2026-04-23 16:47 | 60.06644 | 25.07500 | 14027 ft | 416 kts | 228° |
| 2026-04-23 16:48 | 60.04514 | 25.03530 | 14481 ft | 420 kts | 229° |
| 2026-04-23 16:48 | 60.02364 | 24.99529 | 14919 ft | 424 kts | 229° |
| 2026-04-23 16:48 | 60.00191 | 24.95493 | 15354 ft | 429 kts | 229° |
| 2026-04-23 16:48 | 59.97991 | 24.91415 | 15810 ft | 433 kts | 229° |
| 2026-04-23 16:49 | 59.96522 | 24.88697 | 16101 ft | 435 kts | 229° |
| 2026-04-23 16:49 | 59.93560 | 24.83226 | 16683 ft | 440 kts | 229° |
| 2026-04-23 16:49 | 59.91299 | 24.79059 | 17110 ft | 445 kts | 229° |
| 2026-04-23 16:49 | 59.89014 | 24.74855 | 17533 ft | 449 kts | 229° |
| 2026-04-23 16:50 | 59.86707 | 24.70621 | 17936 ft | 452 kts | 229° |
| 2026-04-23 16:50 | 59.84421 | 24.66297 | 18320 ft | 456 kts | 230° |